createdAt,value
2019-01-08T00:00:03.000Z,26.7
2019-01-08T00:02:16.000Z,26.5
2019-01-08T00:04:16.000Z,26.4
2019-01-08T00:06:16.000Z,26.4
2019-01-08T00:07:16.000Z,26.5
2019-01-08T00:09:16.000Z,26.5
2019-01-08T00:11:16.000Z,26.6
2019-01-08T00:12:16.000Z,26.6
2019-01-08T00:13:16.000Z,26.6
2019-01-08T00:15:16.000Z,26.7
2019-01-08T00:16:16.000Z,26.7
2019-01-08T00:18:16.000Z,26.8
2019-01-08T00:20:16.000Z,26.7
2019-01-08T00:22:16.000Z,26.6
2019-01-08T00:24:16.000Z,26.6
2019-01-08T00:25:16.000Z,26.6
2019-01-08T00:26:16.000Z,26.7
2019-01-08T00:28:16.000Z,26.8
2019-01-08T00:29:16.000Z,26.8
2019-01-08T00:30:16.000Z,26.9
2019-01-08T00:32:16.000Z,26.9
2019-01-08T00:34:16.000Z,26.8
2019-01-08T00:36:16.000Z,26.8
2019-01-08T00:37:16.000Z,26.8
2019-01-08T00:38:16.000Z,26.8
2019-01-08T00:39:16.000Z,26.9
2019-01-08T00:40:16.000Z,26.9
2019-01-08T00:42:16.000Z,27
2019-01-08T00:44:16.000Z,26.9
2019-01-08T00:46:01.000Z,26.8
2019-01-08T00:47:16.000Z,26.7
2019-01-08T00:48:16.000Z,26.7
2019-01-08T00:50:16.000Z,26.7
2019-01-08T00:51:16.000Z,26.7
2019-01-08T00:52:16.000Z,26.8
2019-01-08T00:54:16.000Z,26.9
2019-01-08T00:55:16.000Z,26.9
2019-01-08T00:57:16.000Z,26.9
2019-01-08T00:59:16.000Z,26.8
2019-01-08T01:00:16.000Z,26.8
2019-01-08T01:02:16.000Z,26.8
2019-01-08T01:03:16.000Z,26.8
2019-01-08T01:04:16.000Z,26.9
2019-01-08T01:05:16.000Z,26.9
2019-01-08T01:07:16.000Z,26.9
2019-01-08T01:09:16.000Z,26.8
2019-01-08T01:11:16.000Z,26.8
2019-01-08T01:12:16.000Z,26.7
2019-01-08T01:13:16.000Z,26.8
2019-01-08T01:15:16.000Z,26.8
2019-01-08T01:17:16.000Z,26.8
2019-01-08T01:19:16.000Z,26.7
2019-01-08T01:21:16.000Z,26.6
2019-01-08T01:23:16.000Z,26.5
2019-01-08T01:25:16.000Z,26.5
2019-01-08T01:26:16.000Z,26.5
2019-01-08T01:28:16.000Z,26.6
2019-01-08T01:29:16.000Z,26.6
2019-01-08T01:31:16.000Z,26.7
2019-01-08T01:32:16.000Z,26.7
2019-01-08T01:34:16.000Z,26.7
2019-01-08T01:36:16.000Z,26.7
2019-01-08T01:38:16.000Z,26.7
2019-01-08T01:40:16.000Z,26.6
2019-01-08T01:42:16.000Z,26.6
2019-01-08T01:44:16.000Z,26.5
2019-01-08T01:46:16.000Z,26.5
2019-01-08T01:47:16.000Z,26.5
2019-01-08T01:49:16.000Z,26.6
2019-01-08T01:50:16.000Z,26.6
2019-01-08T01:52:16.000Z,26.6
2019-01-08T01:54:16.000Z,26.6
2019-01-08T01:55:16.000Z,26.5
2019-01-08T01:56:16.000Z,26.6
2019-01-08T01:57:16.000Z,26.7
2019-01-08T01:59:01.000Z,26.8
2019-01-08T02:00:16.000Z,26.7
2019-01-08T02:02:16.000Z,26.5
2019-01-08T02:03:16.000Z,26.5
2019-01-08T02:05:16.000Z,26.5
2019-01-08T02:07:16.000Z,26.6
2019-01-08T02:08:16.000Z,26.6
2019-01-08T02:10:16.000Z,26.6
2019-01-08T02:12:16.000Z,26.6
2019-01-08T02:13:16.000Z,26.6
2019-01-08T02:15:16.000Z,26.6
2019-01-08T02:16:16.000Z,26.6
2019-01-08T02:17:16.000Z,26.6
2019-01-08T02:18:16.000Z,26.7
2019-01-08T02:20:16.000Z,26.7
2019-01-08T02:21:16.000Z,26.8
2019-01-08T02:23:16.000Z,26.8
2019-01-08T02:25:17.000Z,26.8
2019-01-08T02:27:17.000Z,26.7
2019-01-08T02:28:17.000Z,26.7
2019-01-08T02:29:17.000Z,26.8
2019-01-08T02:30:17.000Z,26.8
2019-01-08T02:32:17.000Z,26.8
2019-01-08T02:33:17.000Z,26.8
2019-01-08T02:34:17.000Z,26.8
2019-01-08T02:36:17.000Z,26.8
2019-01-08T02:38:17.000Z,26.7
2019-01-08T02:40:17.000Z,26.6
2019-01-08T02:42:02.000Z,26.5
2019-01-08T02:43:17.000Z,26.3
2019-01-08T02:45:17.000Z,26.2
2019-01-08T02:47:02.000Z,26.2
2019-01-08T02:48:17.000Z,26.1
2019-01-08T02:49:17.000Z,26.2
2019-01-08T02:51:17.000Z,26.3
2019-01-08T02:53:17.000Z,26.3
2019-01-08T02:55:17.000Z,26.3
2019-01-08T02:57:17.000Z,26.3
2019-01-08T02:58:17.000Z,26.3
2019-01-08T02:59:17.000Z,26.4
2019-01-08T03:01:17.000Z,26.4
2019-01-08T03:03:17.000Z,26.5
2019-01-08T03:04:17.000Z,26.5
2019-01-08T03:06:17.000Z,26.6
2019-01-08T03:08:17.000Z,26.5
2019-01-08T03:09:17.000Z,26.5
2019-01-08T03:11:17.000Z,26.5
2019-01-08T03:12:17.000Z,26.5
2019-01-08T03:14:17.000Z,26.5
2019-01-08T03:16:17.000Z,26.5
2019-01-08T03:18:02.000Z,26.5
2019-01-08T03:19:17.000Z,26.4
2019-01-08T03:20:17.000Z,26.5
2019-01-08T03:21:17.000Z,26.5
2019-01-08T03:23:17.000Z,26.6
2019-01-08T03:24:17.000Z,26.6
2019-01-08T03:25:17.000Z,26.6
2019-01-08T03:27:17.000Z,26.6
2019-01-08T03:29:16.000Z,26.6
2019-01-08T03:31:17.000Z,26.5
2019-01-08T03:32:17.000Z,26.5
2019-01-08T03:34:16.000Z,26.5
2019-01-08T03:36:16.000Z,26.5
2019-01-08T03:38:17.000Z,26.4
2019-01-08T03:40:16.000Z,26.5
2019-01-08T03:41:16.000Z,26.5
2019-01-08T03:43:16.000Z,26.5
2019-01-08T03:44:17.000Z,26.6
2019-01-08T03:46:16.000Z,26.6
2019-01-08T03:47:16.000Z,26.6
2019-01-08T03:48:16.000Z,26.6
2019-01-08T03:49:17.000Z,26.7
2019-01-08T03:51:16.000Z,26.7
2019-01-08T03:53:16.000Z,26.7
2019-01-08T03:55:16.000Z,26.6
2019-01-08T03:56:17.000Z,26.6
2019-01-08T03:58:01.000Z,26.6
2019-01-08T03:59:17.000Z,26.6
2019-01-08T04:00:17.000Z,26.6
2019-01-08T04:02:16.000Z,26.6
2019-01-08T04:03:17.000Z,26.6
2019-01-08T04:05:17.000Z,26.6
2019-01-08T04:06:17.000Z,26.7
2019-01-08T04:07:17.000Z,26.7
2019-01-08T04:09:17.000Z,26.8
2019-01-08T04:11:17.000Z,26.6
2019-01-08T04:12:17.000Z,26.6
2019-01-08T04:14:16.000Z,26.6
2019-01-08T04:15:17.000Z,26.6
2019-01-08T04:17:17.000Z,26.6
2019-01-08T04:19:17.000Z,26.6
2019-01-08T04:20:17.000Z,26.6
2019-01-08T04:22:17.000Z,26.6
2019-01-08T04:24:01.000Z,26.6
2019-01-08T04:25:17.000Z,26.5
2019-01-08T04:26:17.000Z,26.5
2019-01-08T04:28:17.000Z,26.6
2019-01-08T04:30:17.000Z,26.5
2019-01-08T04:32:16.000Z,26.5
2019-01-08T04:34:16.000Z,26.5
2019-01-08T04:35:16.000Z,26.4
2019-01-08T04:37:16.000Z,26.5
2019-01-08T04:39:16.000Z,26.4
2019-01-08T04:40:16.000Z,26.4
2019-01-08T04:41:16.000Z,26.5
2019-01-08T04:43:16.000Z,26.5
2019-01-08T04:45:16.000Z,26.5
2019-01-08T04:48:27.000Z,26.5
2019-01-08T04:50:27.000Z,26.5
2019-01-08T04:51:27.000Z,26.6
2019-01-08T04:53:12.000Z,26.6
2019-01-08T04:54:27.000Z,26.6
2019-01-08T04:56:27.000Z,26.5
2019-01-08T04:58:27.000Z,26.4
2019-01-08T04:59:27.000Z,26.4
2019-01-08T05:01:27.000Z,26.5
2019-01-08T05:03:27.000Z,26.5
2019-01-08T05:04:27.000Z,26.5
2019-01-08T05:05:27.000Z,26.5
2019-01-08T05:06:27.000Z,26.5
2019-01-08T05:08:27.000Z,26.6
2019-01-08T05:09:27.000Z,26.6
2019-01-08T05:10:27.000Z,26.6
2019-01-08T05:12:27.000Z,26.6
2019-01-08T05:13:27.000Z,26.6
2019-01-08T05:14:27.000Z,26.7
2019-01-08T05:16:12.000Z,26.7
2019-01-08T05:17:27.000Z,26.7
2019-01-08T05:19:27.000Z,26.6
2019-01-08T05:20:27.000Z,26.6
2019-01-08T05:22:27.000Z,26.6
2019-01-08T05:24:12.000Z,26.6
2019-01-08T05:25:27.000Z,26.5
2019-01-08T05:27:27.000Z,26.4
2019-01-08T05:28:27.000Z,26.4
2019-01-08T05:30:27.000Z,26.3
2019-01-08T05:32:27.000Z,26.2
2019-01-08T05:33:27.000Z,26.2
2019-01-08T05:35:28.000Z,26.3
2019-01-08T05:37:28.000Z,26.3
2019-01-08T05:39:28.000Z,26.3
2019-01-08T05:40:28.000Z,26.3
2019-01-08T05:41:28.000Z,26.4
2019-01-08T05:43:13.000Z,26.4
2019-01-08T05:44:28.000Z,26.3
2019-01-08T05:45:28.000Z,26.4
2019-01-08T05:47:28.000Z,26.4
2019-01-08T05:49:28.000Z,26.4
2019-01-08T05:50:28.000Z,26.4
2019-01-08T05:52:28.000Z,26.4
2019-01-08T05:54:28.000Z,26.4
2019-01-08T05:55:28.000Z,26.4
2019-01-08T05:57:28.000Z,26.4
2019-01-08T05:58:28.000Z,26.4
2019-01-08T05:59:28.000Z,26.5
2019-01-08T06:01:28.000Z,26.6
2019-01-08T06:02:28.000Z,26.6
2019-01-08T06:04:28.000Z,26.7
2019-01-08T06:06:28.000Z,26.6
2019-01-08T06:08:28.000Z,26.6
2019-01-08T06:09:28.000Z,26.6
2019-01-08T06:11:13.000Z,26.6
2019-01-08T06:12:28.000Z,26.5
2019-01-08T06:13:28.000Z,26.5
2019-01-08T06:15:28.000Z,26.7
2019-01-08T06:17:28.000Z,26.6
2019-01-08T06:19:28.000Z,26.6
2019-01-08T06:20:28.000Z,26.7
2019-01-08T06:22:28.000Z,26.7
2019-01-08T06:24:28.000Z,26.7
2019-01-08T06:26:28.000Z,26.7
2019-01-08T06:28:28.000Z,26.7
2019-01-08T06:30:28.000Z,26.7
2019-01-08T06:32:28.000Z,26.7
2019-01-08T06:33:28.000Z,26.7
2019-01-08T06:34:28.000Z,26.8
2019-01-08T06:36:28.000Z,27
2019-01-08T06:38:13.000Z,27
2019-01-08T06:40:28.000Z,26.8
2019-01-08T06:41:28.000Z,26.7
2019-01-08T06:43:28.000Z,26.7
2019-01-08T06:44:28.000Z,26.8
2019-01-08T06:45:28.000Z,26.9
2019-01-08T06:47:28.000Z,27
2019-01-08T06:49:28.000Z,26.9
2019-01-08T06:51:28.000Z,26.9
2019-01-08T06:53:28.000Z,26.8
2019-01-08T06:55:28.000Z,26.8
2019-01-08T06:57:28.000Z,26.8
2019-01-08T06:58:28.000Z,26.8
2019-01-08T07:00:13.000Z,26.9
2019-01-08T07:01:28.000Z,26.9
2019-01-08T07:02:28.000Z,26.9
2019-01-08T07:04:28.000Z,27
2019-01-08T07:06:28.000Z,26.9
2019-01-08T07:07:28.000Z,26.9
2019-01-08T07:09:28.000Z,27
2019-01-08T07:11:28.000Z,27
2019-01-08T07:12:28.000Z,27
2019-01-08T07:13:28.000Z,27.1
2019-01-08T07:14:28.000Z,27.2
2019-01-08T07:16:28.000Z,27.2
2019-01-08T07:17:28.000Z,27.2
2019-01-08T07:18:28.000Z,27.3
2019-01-08T07:20:28.000Z,27.3
2019-01-08T07:21:28.000Z,27.4
2019-01-08T07:23:28.000Z,27.4
2019-01-08T07:24:28.000Z,27.4
2019-01-08T07:25:28.000Z,27.4
2019-01-08T07:27:13.000Z,27.5
2019-01-08T07:28:28.000Z,27.4
2019-01-08T07:30:28.000Z,27.1
2019-01-08T07:31:28.000Z,27.1
2019-01-08T07:32:28.000Z,27.1
2019-01-08T07:33:28.000Z,27.2
2019-01-08T07:35:28.000Z,27.3
2019-01-08T07:37:13.000Z,27.4
2019-01-08T07:38:28.000Z,27.3
2019-01-08T07:40:28.000Z,27.2
2019-01-08T07:42:28.000Z,27.2
2019-01-08T07:43:28.000Z,27.3
2019-01-08T07:45:28.000Z,27.4
2019-01-08T07:47:28.000Z,27.3
2019-01-08T07:48:28.000Z,27.4
2019-01-08T07:49:28.000Z,27.4
2019-01-08T07:51:13.000Z,27.5
2019-01-08T07:52:28.000Z,27.5
2019-01-08T07:53:28.000Z,27.5
2019-01-08T07:55:28.000Z,27.6
2019-01-08T07:56:28.000Z,27.6
2019-01-08T07:58:28.000Z,27.6
2019-01-08T07:59:28.000Z,27.6
2019-01-08T08:00:28.000Z,27.7
2019-01-08T08:02:28.000Z,27.6
2019-01-08T08:03:28.000Z,27.6
2019-01-08T08:04:28.000Z,27.6
2019-01-08T08:06:28.000Z,27.6
2019-01-08T08:07:28.000Z,27.6
2019-01-08T08:08:28.000Z,27.6
2019-01-08T08:10:28.000Z,27.6
2019-01-08T08:12:28.000Z,27.5
2019-01-08T08:13:28.000Z,27.5
2019-01-08T08:15:28.000Z,27.5
2019-01-08T08:16:28.000Z,27.5
2019-01-08T08:18:28.000Z,27.5
2019-01-08T08:20:13.000Z,27.6
2019-01-08T08:21:28.000Z,27.5
2019-01-08T08:23:28.000Z,27.6
2019-01-08T08:24:28.000Z,27.6
2019-01-08T08:25:28.000Z,27.6
2019-01-08T08:27:28.000Z,27.6
2019-01-08T08:29:28.000Z,27.5
2019-01-08T08:30:28.000Z,27.5
2019-01-08T08:31:28.000Z,27.6
2019-01-08T08:33:28.000Z,27.6
2019-01-08T08:34:28.000Z,27.7
2019-01-08T08:36:28.000Z,27.7
2019-01-08T08:37:28.000Z,27.8
2019-01-08T08:39:28.000Z,27.8
2019-01-08T08:40:28.000Z,27.8
2019-01-08T08:42:28.000Z,27.9
2019-01-08T08:43:28.000Z,27.9
2019-01-08T08:45:28.000Z,27.9
2019-01-08T08:47:28.000Z,27.8
2019-01-08T08:48:28.000Z,27.8
2019-01-08T08:50:28.000Z,27.8
2019-01-08T08:52:13.000Z,27.7
2019-01-08T08:53:28.000Z,27.6
2019-01-08T08:55:28.000Z,27.6
2019-01-08T08:56:28.000Z,27.6
2019-01-08T08:58:28.000Z,27.7
2019-01-08T08:59:28.000Z,27.7
2019-01-08T09:01:12.000Z,27.8
2019-01-08T09:02:28.000Z,27.8
2019-01-08T09:03:28.000Z,27.9
2019-01-08T09:05:12.000Z,27.9
2019-01-08T09:06:28.000Z,28
2019-01-08T09:07:28.000Z,28
2019-01-08T09:09:28.000Z,28
2019-01-08T09:10:28.000Z,28
2019-01-08T09:12:28.000Z,28.1
2019-01-08T09:13:28.000Z,28.1
2019-01-08T09:15:28.000Z,28.2
2019-01-08T09:17:28.000Z,28.2
2019-01-08T09:19:28.000Z,28.1
2019-01-08T09:20:28.000Z,28.1
2019-01-08T09:22:28.000Z,28.2
2019-01-08T09:23:28.000Z,28.3
2019-01-08T09:25:28.000Z,28.4
2019-01-08T09:27:28.000Z,28.5
2019-01-08T09:29:28.000Z,28.5
2019-01-08T09:31:13.000Z,28.5
2019-01-08T09:32:28.000Z,28.4
2019-01-08T09:33:28.000Z,28.4
2019-01-08T09:34:28.000Z,28.4
2019-01-08T09:35:28.000Z,28.5
2019-01-08T09:37:28.000Z,28.6
2019-01-08T09:39:28.000Z,28.6
2019-01-08T09:41:28.000Z,28.6
2019-01-08T09:42:28.000Z,28.7
2019-01-08T09:44:28.000Z,28.6
2019-01-08T09:46:28.000Z,28.6
2019-01-08T09:48:28.000Z,28.6
2019-01-08T09:50:28.000Z,28.6
2019-01-08T09:51:28.000Z,28.6
2019-01-08T09:53:28.000Z,28.6
2019-01-08T09:54:28.000Z,28.7
2019-01-08T09:56:28.000Z,28.6
2019-01-08T09:57:28.000Z,28.6
2019-01-08T09:59:28.000Z,28.7
2019-01-08T10:00:28.000Z,28.7
2019-01-08T10:02:28.000Z,28.7
2019-01-08T10:04:28.000Z,28.8
2019-01-08T10:06:28.000Z,28.7
2019-01-08T10:08:28.000Z,28.7
2019-01-08T10:10:28.000Z,28.8
2019-01-08T10:12:28.000Z,28.8
2019-01-08T10:14:28.000Z,28.8
2019-01-08T10:15:28.000Z,28.8
2019-01-08T10:17:13.000Z,29
2019-01-08T10:18:28.000Z,29
2019-01-08T10:19:28.000Z,29
2019-01-08T10:21:28.000Z,29.1
2019-01-08T10:23:28.000Z,29.1
2019-01-08T10:25:28.000Z,29.1
2019-01-08T10:27:28.000Z,29
2019-01-08T10:29:28.000Z,28.4
2019-01-08T10:30:28.000Z,28
2019-01-08T10:32:28.000Z,27.3
2019-01-08T10:34:28.000Z,26.7
2019-01-08T10:36:28.000Z,26.2
2019-01-08T10:37:28.000Z,26
2019-01-08T10:39:28.000Z,25.8
2019-01-08T10:41:28.000Z,25.5
2019-01-08T10:43:28.000Z,25.3
2019-01-08T10:44:28.000Z,25.3
2019-01-08T10:46:28.000Z,25.4
2019-01-08T10:48:28.000Z,25.1
2019-01-08T10:49:28.000Z,25.1
2019-01-08T10:51:28.000Z,25.5
2019-01-08T10:53:28.000Z,25.7
2019-01-08T10:54:28.000Z,25.9
2019-01-08T10:56:28.000Z,26.1
2019-01-08T10:58:28.000Z,26.2
2019-01-08T10:59:28.000Z,26.3
2019-01-08T11:01:28.000Z,26.5
2019-01-08T11:02:28.000Z,26.5
2019-01-08T11:04:28.000Z,26.6
2019-01-08T11:06:28.000Z,26.3
2019-01-08T11:07:28.000Z,26.1
2019-01-08T11:09:28.000Z,26
2019-01-08T11:10:28.000Z,25.9
2019-01-08T11:12:28.000Z,25.7
2019-01-08T11:13:28.000Z,25.6
2019-01-08T11:15:28.000Z,25.5
2019-01-08T11:17:28.000Z,25.4
2019-01-08T11:18:28.000Z,25.4
2019-01-08T11:20:28.000Z,25.4
2019-01-08T11:22:28.000Z,25.4
2019-01-08T11:24:28.000Z,25.5
2019-01-08T11:26:28.000Z,25.5
2019-01-08T11:28:28.000Z,25.4
2019-01-08T11:30:28.000Z,25.2
2019-01-08T11:31:28.000Z,25.2
2019-01-08T11:32:28.000Z,25.1
2019-01-08T11:34:28.000Z,25.1
2019-01-08T11:35:28.000Z,25.1
2019-01-08T11:37:28.000Z,25.1
2019-01-08T11:38:28.000Z,25
2019-01-08T11:40:28.000Z,24.7
2019-01-08T11:41:28.000Z,24.6
2019-01-08T11:43:28.000Z,24.3
2019-01-08T11:45:28.000Z,24.1
2019-01-08T11:47:28.000Z,23.8
2019-01-08T11:49:28.000Z,23.9
2019-01-08T11:51:28.000Z,24
2019-01-08T11:53:28.000Z,24.2
2019-01-08T11:55:28.000Z,24.5
2019-01-08T11:56:28.000Z,24.8
2019-01-08T11:58:28.000Z,25.2
2019-01-08T12:00:28.000Z,25.5
2019-01-08T12:02:28.000Z,25.7
2019-01-08T12:04:28.000Z,25.9
2019-01-08T12:05:28.000Z,26
2019-01-08T12:07:28.000Z,26.2
2019-01-08T12:09:28.000Z,26.2
2019-01-08T12:10:28.000Z,26.3
2019-01-08T12:12:28.000Z,26.5
2019-01-08T12:13:28.000Z,26.6
2019-01-08T12:15:28.000Z,26.8
2019-01-08T12:16:28.000Z,26.9
2019-01-08T12:18:28.000Z,27
2019-01-08T12:20:28.000Z,27
2019-01-08T12:22:28.000Z,27.1
2019-01-08T12:24:28.000Z,27.1
2019-01-08T12:26:28.000Z,27.1
2019-01-08T12:28:28.000Z,27.1
2019-01-08T12:29:28.000Z,27.1
2019-01-08T12:31:28.000Z,27.2
2019-01-08T12:32:28.000Z,27.3
2019-01-08T12:34:28.000Z,27.4
2019-01-08T12:35:28.000Z,27.4
2019-01-08T12:36:28.000Z,27.5
2019-01-08T12:38:28.000Z,27.6
2019-01-08T12:39:28.000Z,27.6
2019-01-08T12:41:28.000Z,27.7
2019-01-08T13:22:20.000Z,26.6
2019-01-08T13:24:06.000Z,26.8
2019-01-08T13:25:06.000Z,26.9
2019-01-08T13:26:06.000Z,27.1
2019-01-08T13:27:06.000Z,27.3
2019-01-08T13:29:06.000Z,27.6
2019-01-08T13:30:06.000Z,27.7
2019-01-08T13:31:51.000Z,27.9
2019-01-08T13:33:06.000Z,27.9
2019-01-08T13:35:06.000Z,28
2019-01-08T13:37:06.000Z,28.1
2019-01-08T13:38:51.000Z,28.1
2019-01-08T13:40:06.000Z,28.1
2019-01-08T13:41:06.000Z,28.1
2019-01-08T13:43:06.000Z,28.2
2019-01-08T13:45:06.000Z,28.3
2019-01-08T13:47:06.000Z,28.3
2019-01-08T13:48:06.000Z,28.3
2019-01-08T13:50:06.000Z,28.4
2019-01-08T13:52:06.000Z,28.4
2019-01-08T13:54:06.000Z,28.3
2019-01-08T13:56:06.000Z,28.3
2019-01-08T13:57:06.000Z,28.3
2019-01-08T13:59:06.000Z,28.4
2019-01-08T14:01:06.000Z,28.4
2019-01-08T14:02:06.000Z,28.4
2019-01-08T14:03:51.000Z,28.5
2019-01-08T14:05:06.000Z,28.5
2019-01-08T14:07:06.000Z,28.5
2019-01-08T14:08:06.000Z,28.6
2019-01-08T14:09:06.000Z,28.7
2019-01-08T14:10:06.000Z,28.8
2019-01-08T14:12:06.000Z,28.8
2019-01-08T14:13:06.000Z,28.4
2019-01-08T14:14:06.000Z,28.1
2019-01-08T14:15:06.000Z,27.8
2019-01-08T14:17:06.000Z,27.2
2019-01-08T14:18:06.000Z,27
2019-01-08T14:20:06.000Z,26.5
2019-01-08T14:21:51.000Z,26
2019-01-08T14:23:06.000Z,25.7
2019-01-08T14:25:06.000Z,25.3
2019-01-08T14:27:06.000Z,25
2019-01-08T14:29:06.000Z,24.6
2019-01-08T14:30:06.000Z,24.4
2019-01-08T14:31:06.000Z,24.4
2019-01-08T14:33:06.000Z,24.4
2019-01-08T14:34:06.000Z,24.4
2019-01-08T14:36:06.000Z,24.2
2019-01-08T14:37:06.000Z,24.2
2019-01-08T14:38:06.000Z,24.2
2019-01-08T14:39:51.000Z,24.4
2019-01-08T14:41:06.000Z,24.4
2019-01-08T14:43:06.000Z,24.5
2019-01-08T14:45:06.000Z,24.4
2019-01-08T14:46:06.000Z,24.4
2019-01-08T14:47:06.000Z,24.5
2019-01-08T14:49:06.000Z,24.6
2019-01-08T14:50:06.000Z,24.7
2019-01-08T14:52:06.000Z,24.6
2019-01-08T14:54:06.000Z,24.5
2019-01-08T14:56:06.000Z,24.2
2019-01-08T14:58:06.000Z,24
2019-01-08T15:00:06.000Z,24.3
2019-01-08T15:01:06.000Z,24.4
2019-01-08T15:02:51.000Z,24.8
2019-01-08T15:04:06.000Z,25
2019-01-08T15:05:06.000Z,25.2
2019-01-08T15:07:06.000Z,25.5
2019-01-08T15:08:07.000Z,25.6
2019-01-08T15:10:07.000Z,25.9
2019-01-08T15:11:07.000Z,26.1
2019-01-08T15:13:07.000Z,26.3
2019-01-08T15:14:07.000Z,26.4
2019-01-08T15:15:07.000Z,26.6
2019-01-08T15:17:07.000Z,26.8
2019-01-08T15:19:07.000Z,26.8
2019-01-08T15:20:51.000Z,26.9
2019-01-08T15:22:07.000Z,26.9
2019-01-08T15:23:07.000Z,26.9
2019-01-08T15:25:07.000Z,27
2019-01-08T15:27:07.000Z,27
2019-01-08T15:29:07.000Z,27.1
2019-01-08T15:30:07.000Z,27.1
2019-01-08T15:32:07.000Z,27.2
2019-01-08T15:34:06.000Z,27.2
2019-01-08T15:35:07.000Z,27.3
2019-01-08T15:36:07.000Z,27.3
2019-01-08T15:38:07.000Z,27.4
2019-01-08T15:40:07.000Z,27.4
2019-01-08T15:42:07.000Z,27.4
2019-01-08T15:43:07.000Z,27.4
2019-01-08T15:45:07.000Z,27.4
2019-01-08T15:46:07.000Z,27.4
2019-01-08T15:47:07.000Z,27.4
2019-01-08T15:48:07.000Z,27.5
2019-01-08T15:50:07.000Z,27.5
2019-01-08T15:52:07.000Z,27.5
2019-01-08T15:54:07.000Z,27.5
2019-01-08T15:55:07.000Z,27.5
2019-01-08T15:56:07.000Z,27.5
2019-01-08T15:58:07.000Z,27.5
2019-01-08T16:00:06.000Z,27.4
2019-01-08T16:02:07.000Z,27.2
2019-01-08T16:03:07.000Z,27.2
2019-01-08T16:05:07.000Z,27.2
2019-01-08T16:06:07.000Z,27.3
2019-01-08T16:08:07.000Z,27.3
2019-01-08T16:10:07.000Z,27.3
2019-01-08T16:11:07.000Z,27.4
2019-01-08T16:13:07.000Z,27.4
2019-01-08T16:14:07.000Z,27.5
2019-01-08T16:15:07.000Z,27.5
2019-01-08T16:17:07.000Z,27.6
2019-01-08T16:18:51.000Z,27.6
2019-01-08T16:20:07.000Z,27.6
2019-01-08T16:21:07.000Z,27.6
2019-01-08T16:23:07.000Z,27.5
2019-01-08T16:24:07.000Z,27.6
2019-01-08T16:26:07.000Z,27.6
2019-01-08T16:28:07.000Z,27.6
2019-01-08T16:29:07.000Z,27.6
2019-01-08T16:31:07.000Z,27.6
2019-01-08T16:32:07.000Z,27.6
2019-01-08T16:33:07.000Z,27.6
2019-01-08T16:35:07.000Z,27.5
2019-01-08T16:37:07.000Z,27.4
2019-01-08T16:38:07.000Z,27.4
2019-01-08T16:40:07.000Z,27.4
2019-01-08T16:42:07.000Z,27.3
2019-01-08T16:43:07.000Z,27.3
2019-01-08T16:45:07.000Z,27.4
2019-01-08T16:47:07.000Z,27.4
2019-01-08T16:49:07.000Z,27.3
2019-01-08T16:51:07.000Z,27.3
2019-01-08T16:53:07.000Z,27.3
2019-01-08T16:54:07.000Z,27.3
2019-01-08T16:56:07.000Z,27.3
2019-01-08T16:57:51.000Z,27.3
2019-01-08T16:59:07.000Z,27.3
2019-01-08T17:01:07.000Z,27.3
2019-01-08T17:03:07.000Z,27.3
2019-01-08T17:04:51.000Z,27.3
2019-01-08T17:06:07.000Z,27.3
2019-01-08T17:08:07.000Z,27.2
2019-01-08T17:10:07.000Z,27.2
2019-01-08T17:12:07.000Z,27.2
2019-01-08T17:13:07.000Z,27.3
2019-01-08T17:15:07.000Z,27.3
2019-01-08T17:17:07.000Z,27.3
2019-01-08T17:19:07.000Z,27.3
2019-01-08T17:21:07.000Z,27.3
2019-01-08T17:23:07.000Z,27.3
2019-01-08T17:25:07.000Z,27.3
2019-01-08T17:27:07.000Z,27.2
2019-01-08T17:28:07.000Z,27.2
2019-01-08T17:30:07.000Z,27.3
2019-01-08T17:31:07.000Z,27.3
2019-01-08T17:33:07.000Z,27.4
2019-01-08T17:34:07.000Z,27.5
2019-01-08T17:36:07.000Z,27.5
2019-01-08T17:37:07.000Z,27.5
2019-01-08T17:39:07.000Z,27.5
2019-01-08T17:41:07.000Z,27.3
2019-01-08T17:43:07.000Z,27.3
2019-01-08T17:44:07.000Z,27.3
2019-01-08T17:45:52.000Z,27.2
2019-01-08T17:47:07.000Z,27.2
2019-01-08T17:49:07.000Z,27.2
2019-01-08T17:51:07.000Z,27.2
2019-01-08T17:53:07.000Z,27.3
2019-01-08T17:54:07.000Z,27.3
2019-01-08T17:56:07.000Z,27.3
2019-01-08T17:58:07.000Z,27.3
2019-01-08T18:00:07.000Z,27.3
2019-01-08T18:02:07.000Z,27.3
2019-01-08T18:03:07.000Z,27.4
2019-01-08T18:04:07.000Z,27.4
2019-01-08T18:06:07.000Z,27.5
2019-01-08T18:07:07.000Z,27.5
2019-01-08T18:08:07.000Z,27.5
2019-01-08T18:10:07.000Z,27.5
2019-01-08T18:11:07.000Z,27.5
2019-01-08T18:13:07.000Z,27.6
2019-01-08T18:15:07.000Z,27.6
2019-01-08T18:16:07.000Z,27.6
2019-01-08T18:18:07.000Z,27.5
2019-01-08T18:20:07.000Z,27.4
2019-01-08T18:22:07.000Z,27.4
2019-01-08T18:23:07.000Z,27.4
2019-01-08T18:25:07.000Z,27.4
2019-01-08T18:27:07.000Z,27.3
2019-01-08T18:29:07.000Z,27.3
2019-01-08T18:31:07.000Z,27.2
2019-01-08T18:33:07.000Z,27.1
2019-01-08T18:34:07.000Z,27.1
2019-01-08T18:35:07.000Z,27.2
2019-01-08T18:37:07.000Z,27.3
2019-01-08T18:39:07.000Z,27.3
2019-01-08T18:41:07.000Z,27.3
2019-01-08T18:42:07.000Z,27.3
2019-01-08T18:43:07.000Z,27.4
2019-01-08T18:45:07.000Z,27.3
2019-01-08T18:47:07.000Z,27.2
2019-01-08T18:49:07.000Z,27.3
2019-01-08T18:51:07.000Z,27.2
2019-01-08T18:52:07.000Z,27.1
2019-01-08T18:54:07.000Z,27.2
2019-01-08T18:56:07.000Z,27.2
2019-01-08T18:57:07.000Z,27.3
2019-01-08T18:58:07.000Z,27.3
2019-01-08T19:00:07.000Z,27.3
2019-01-08T19:01:07.000Z,27.3
2019-01-08T19:03:07.000Z,27.4
2019-01-08T19:05:07.000Z,27.4
2019-01-08T19:06:07.000Z,27.4
2019-01-08T19:07:52.000Z,27.4
2019-01-08T19:09:07.000Z,27.4
2019-01-08T19:10:07.000Z,27.4
2019-01-08T19:12:07.000Z,27.4
2019-01-08T19:13:07.000Z,27.4
2019-01-08T19:15:07.000Z,27.5
2019-01-08T19:17:07.000Z,27.5
2019-01-08T19:18:07.000Z,27.5
2019-01-08T19:19:07.000Z,27.5
2019-01-08T19:21:07.000Z,27.5
2019-01-08T19:22:07.000Z,27.5
2019-01-08T19:24:07.000Z,27.5
2019-01-08T19:26:07.000Z,27.4
2019-01-08T19:27:51.000Z,27.4
2019-01-08T19:29:07.000Z,27.4
2019-01-08T19:31:07.000Z,27.4
2019-01-08T19:33:07.000Z,27.2
2019-01-08T19:34:07.000Z,27.2
2019-01-08T19:36:07.000Z,27.1
2019-01-08T19:37:07.000Z,27.1
2019-01-08T19:38:07.000Z,27.2
2019-01-08T19:39:07.000Z,27.3
2019-01-08T19:41:07.000Z,27.3
2019-01-08T19:43:07.000Z,27.3
2019-01-08T19:45:07.000Z,27.3
2019-01-08T19:46:52.000Z,27.3
2019-01-08T19:48:07.000Z,27.2
2019-01-08T19:49:07.000Z,27.2
2019-01-08T19:51:07.000Z,27.3
2019-01-08T19:53:07.000Z,27.4
2019-01-08T19:54:07.000Z,27.4
2019-01-08T19:56:07.000Z,27.4
2019-01-08T19:57:07.000Z,27.3
2019-01-08T19:58:07.000Z,27.4
2019-01-08T20:00:07.000Z,27.4
2019-01-08T20:02:07.000Z,27.4
2019-01-08T20:04:07.000Z,27.4
2019-01-08T20:05:07.000Z,27.4
2019-01-08T20:07:07.000Z,27.4
2019-01-08T20:09:07.000Z,27.3
2019-01-08T20:11:07.000Z,27.2
2019-01-08T20:13:07.000Z,27.2
2019-01-08T20:15:07.000Z,27.1
2019-01-08T20:17:07.000Z,27.1
2019-01-08T20:18:07.000Z,27.1
2019-01-08T20:19:07.000Z,27.1
2019-01-08T20:20:07.000Z,27.2
2019-01-08T20:22:07.000Z,27.2
2019-01-08T20:23:07.000Z,27.2
2019-01-08T20:25:07.000Z,27.2
2019-01-08T20:27:07.000Z,27.2
2019-01-08T20:28:06.000Z,27.2
2019-01-08T20:30:06.000Z,27.2
2019-01-08T20:31:06.000Z,27.2
2019-01-08T20:32:06.000Z,27.2
2019-01-08T20:33:06.000Z,27.3
2019-01-08T20:35:06.000Z,27.3
2019-01-08T20:37:06.000Z,27.1
2019-01-08T20:38:06.000Z,27.1
2019-01-08T20:39:51.000Z,27.2
2019-01-08T20:41:06.000Z,27.1
2019-01-08T20:42:06.000Z,27.1
2019-01-08T20:44:06.000Z,27
2019-01-08T20:45:06.000Z,27
2019-01-08T20:46:06.000Z,27
2019-01-08T20:48:06.000Z,27
2019-01-08T20:50:06.000Z,27.1
2019-01-08T20:52:06.000Z,27
2019-01-08T20:53:51.000Z,27
2019-01-08T20:55:06.000Z,27
2019-01-08T20:57:06.000Z,27
2019-01-08T20:59:06.000Z,26.9
2019-01-08T21:01:06.000Z,26.9
2019-01-08T21:02:06.000Z,26.9
2019-01-08T21:03:06.000Z,27
2019-01-08T21:05:06.000Z,27.1
2019-01-08T21:06:06.000Z,27.1
2019-01-08T21:08:06.000Z,27.1
2019-01-08T21:09:06.000Z,27.1
2019-01-08T21:10:06.000Z,27.2
2019-01-08T21:11:06.000Z,27.2
2019-01-08T21:12:06.000Z,27.2
2019-01-08T21:14:06.000Z,27.3
2019-01-08T21:16:06.000Z,27.3
2019-01-08T21:18:06.000Z,27.2
2019-01-08T21:19:51.000Z,27.2
2019-01-08T21:21:06.000Z,27.1
2019-01-08T21:22:06.000Z,27.1
2019-01-08T21:24:06.000Z,27.1
2019-01-08T21:26:06.000Z,27
2019-01-08T21:28:06.000Z,27
2019-01-08T21:30:06.000Z,26.9
2019-01-08T21:31:06.000Z,26.9
2019-01-08T21:33:07.000Z,27
2019-01-08T21:34:52.000Z,27
2019-01-08T21:36:07.000Z,27
2019-01-08T21:38:07.000Z,27
2019-01-08T21:39:07.000Z,27
2019-01-08T21:41:07.000Z,27
2019-01-08T21:42:07.000Z,27.1
2019-01-08T21:44:07.000Z,27.1
2019-01-08T21:45:07.000Z,27.1
2019-01-08T21:46:07.000Z,27.1
2019-01-08T21:47:07.000Z,27.2
2019-01-08T21:49:07.000Z,27.2